Airfield :
LOGIN :

Register | Disclaimer

   EN    FR    IT 

 










Legend :    VFR   Marginal VFR   IFR   Intensive IFR   Very Intensive IFR
Visi :
Ceiling :
>= 8 km
>= 3000ft
5 to 8 km
1000 to 3000 ft
1500m to 5 km
500 to 1000 ft
800 to 1500m
200 to 500 ft
< 800m
< 200 ft
Symbols :   Thunderstorms  Fog  Heavy snow  Heavy precipitations  Wind > 20 kt
SIGMETs :     Misc.  Thunderstorms  Icing  Turbulence  Mountain Waves  Volcanic Ashes






- Airport Elevation : 3 ft
- IATA code : LWR


EHLW - Leuuwarden Air Base

CURRENT METAR :
  • 180255Z AUTO 25019KT 9999 FEW031 SCT035 06/02 Q1013 BLU

EXPIRED METARs :
  • 180225Z AUTO 25021KT 220V290 9999 FEW021 SCT130 06/03 Q1012 BLU
  • 180206Z AUTO 26020KT 9999 SCT022 BKN031 BKN043 07/03 Q1012 WHT
  • 180155Z AUTO 25020KT 9999 NCD 07/03 Q1012 BLU
  • 180125Z AUTO 24016KT 9999 FEW019 SCT029 BKN048 07/04 Q1012 BLU
  • 180116Z AUTO 25016KT 210V270 9999 FEW019 SCT026 BKN029 07/04 Q1012 BLU
  • 180115Z AUTO 25016KT 210V270 9999 FEW019 BKN024 BKN029 07/04 Q1012 WHT
  • 180055Z AUTO 25018KT 220V280 9999 FEW023 SCT026 BKN036 07/04 Q1011 BLU
  • 180025Z AUTO 25019KT 9999 BKN200 07/05 Q1011 BLU

TAF TAF EHLW
Valid from the 18 at 02:00 until the 18 at 14:00 UTC


180151Z 1802/1814 25018KT 9999 FEW024
TEMPO 1802/1814 27020G30KT 4500 SHRA FEW010 SCT020CB
BECMG 1809/1812 24020G30KT



MET'MAP, your aeronautical weather chart ! - Copyright ORBIFLY December 2007 - Disclaimer

ORBIFLY MET'MAP TEAM :

Programming & Development : Alexandra Zaïnal
Concept & original design : Baudouin d'Aumeries
Assistance for programming : Marc-Olivier Méhu
Technical & hardware support : Manuel Goepfert

Contact : metmap@orbifly.com




SOURCES & CREDITS :

   NOAA